createdAt,value
2023-04-18T00:00:24.734Z,5.138
2023-04-18T00:01:24.911Z,5.181
2023-04-18T00:02:24.370Z,5.117
2023-04-18T00:03:24.751Z,5.114
2023-04-18T00:04:25.512Z,5.085
2023-04-18T00:06:24.736Z,5.058
2023-04-18T00:07:24.935Z,5.037
2023-04-18T00:08:24.137Z,5.085
2023-04-18T00:09:24.436Z,5.034
2023-04-18T00:10:24.958Z,5.045
2023-04-18T00:11:26.142Z,5.037
2023-04-18T00:12:24.266Z,5.077
2023-04-18T00:13:24.405Z,5.034
2023-04-18T00:14:24.549Z,5.061
2023-04-18T00:15:24.653Z,5.053
2023-04-18T00:16:24.800Z,5.034
2023-04-18T00:17:25.140Z,5.042
2023-04-18T00:18:24.535Z,5.034
2023-04-18T00:19:24.685Z,4.989
2023-04-18T00:20:25.029Z,5.005
2023-04-18T00:21:24.154Z,5.015
2023-04-18T00:22:24.556Z,4.994
2023-04-18T00:23:24.753Z,4.981
2023-04-18T00:24:24.985Z,4.989
2023-04-18T00:25:25.093Z,4.994
2023-04-18T00:26:24.269Z,5.015
2023-04-18T00:27:24.465Z,4.978
2023-04-18T00:28:24.704Z,5.026
2023-04-18T00:29:25.137Z,5.050
2023-04-18T00:30:24.264Z,5.050
2023-04-18T00:31:24.813Z,5.058
2023-04-18T00:33:24.655Z,5.061
2023-04-18T00:34:24.831Z,5.034
2023-04-18T00:35:24.997Z,5.005
2023-04-18T00:36:24.164Z,4.986
2023-04-18T00:37:24.737Z,4.930
2023-04-18T00:38:24.908Z,4.959
2023-04-18T00:39:25.068Z,4.940
2023-04-18T00:40:24.233Z,4.951
2023-04-18T00:41:24.405Z,4.978
2023-04-18T00:42:24.816Z,4.930
2023-04-18T00:43:25.072Z,4.943
2023-04-18T00:44:24.253Z,4.994
2023-04-18T00:45:24.472Z,4.994
2023-04-18T00:46:24.727Z,5.026
2023-04-18T00:47:25.085Z,5.069
2023-04-18T00:48:24.399Z,5.031
2023-04-18T00:49:24.608Z,5.077
2023-04-18T00:50:24.855Z,5.114
2023-04-18T00:51:25.068Z,5.133
2023-04-18T00:52:24.369Z,5.151
2023-04-18T00:53:24.562Z,5.135
2023-04-18T00:54:24.763Z,5.157
2023-04-18T00:55:24.957Z,5.175
2023-04-18T00:57:24.275Z,5.165
2023-04-18T00:58:24.475Z,5.157
2023-04-18T00:59:24.624Z,5.165
2023-04-18T01:00:24.843Z,5.138
2023-04-18T01:01:25.123Z,5.111
2023-04-18T01:02:24.597Z,5.122
2023-04-18T01:03:25.149Z,5.119
2023-04-18T01:05:24.142Z,5.122
2023-04-18T01:06:24.272Z,5.101
2023-04-18T01:07:24.470Z,5.079
2023-04-18T01:08:24.869Z,5.053
2023-04-18T01:09:25.062Z,5.029
2023-04-18T01:10:24.179Z,5.071
2023-04-18T01:11:24.316Z,5.063
2023-04-18T01:12:24.461Z,5.039
2023-04-18T01:13:24.620Z,5.045
2023-04-18T01:14:24.784Z,5.061
2023-04-18T01:15:25.012Z,5.058
2023-04-18T01:16:24.410Z,5.087
2023-04-18T01:17:24.728Z,5.079
2023-04-18T01:18:25.088Z,5.098
2023-04-18T01:19:24.256Z,5.090
2023-04-18T01:20:24.511Z,5.111
2023-04-18T01:21:24.707Z,5.143
2023-04-18T01:22:24.875Z,5.149
2023-04-18T01:23:25.080Z,5.173
2023-04-18T01:26:24.572Z,5.181
2023-04-18T01:27:24.759Z,5.181
2023-04-18T01:28:24.942Z,5.181
2023-04-18T01:29:25.160Z,5.183
2023-04-18T01:30:24.348Z,5.183
2023-04-18T01:31:24.742Z,5.170
2023-04-18T01:32:24.272Z,5.146
2023-04-18T01:33:24.667Z,5.167
2023-04-18T01:34:24.802Z,5.216
2023-04-18T01:35:25.028Z,5.192
2023-04-18T01:37:24.324Z,5.197
2023-04-18T01:38:25.006Z,5.183
2023-04-18T01:39:24.208Z,5.175
2023-04-18T01:40:24.405Z,5.143
2023-04-18T01:41:24.579Z,5.106
2023-04-18T01:42:24.705Z,5.138
2023-04-18T01:43:24.818Z,5.146
2023-04-18T01:44:25.020Z,5.117
2023-04-18T01:45:24.181Z,5.143
2023-04-18T01:46:24.538Z,5.106
2023-04-18T01:47:25.028Z,5.154
2023-04-18T01:48:24.433Z,5.149
2023-04-18T01:49:24.531Z,5.125
2023-04-18T01:50:24.640Z,5.146
2023-04-18T01:51:24.843Z,5.122
2023-04-18T01:52:25.053Z,5.167
2023-04-18T01:53:24.185Z,5.146
2023-04-18T01:54:24.340Z,5.157
2023-04-18T01:55:24.698Z,5.170
2023-04-18T01:56:24.967Z,5.173
2023-04-18T01:57:24.151Z,5.159
2023-04-18T01:58:24.420Z,5.210
2023-04-18T01:59:24.611Z,5.208
2023-04-18T02:00:24.831Z,5.197
2023-04-18T02:01:25.231Z,5.224
2023-04-18T02:02:24.833Z,5.234
2023-04-18T02:03:25.176Z,5.216
2023-04-18T02:05:24.872Z,5.229
2023-04-18T02:06:24.149Z,5.256
2023-04-18T02:07:24.317Z,5.256
2023-04-18T02:08:24.524Z,5.250
2023-04-18T02:09:24.733Z,5.216
2023-04-18T02:10:24.923Z,5.221
2023-04-18T02:11:25.074Z,5.218
2023-04-18T02:12:24.263Z,5.232
2023-04-18T02:13:24.487Z,5.221
2023-04-18T02:14:24.674Z,5.258
2023-04-18T02:15:24.843Z,5.229
2023-04-18T02:16:25.144Z,5.232
2023-04-18T02:18:24.113Z,5.221
2023-04-18T02:19:24.272Z,5.229
2023-04-18T02:20:24.475Z,5.197
2023-04-18T02:21:24.655Z,5.234
2023-04-18T02:22:24.846Z,5.197
2023-04-18T02:23:24.976Z,5.248
2023-04-18T02:24:24.135Z,5.261
2023-04-18T02:25:24.304Z,5.245
2023-04-18T02:26:24.575Z,5.250
2023-04-18T02:27:24.724Z,5.266
2023-04-18T02:28:24.911Z,5.282
2023-04-18T02:29:25.095Z,5.248
2023-04-18T02:31:24.735Z,5.282
2023-04-18T02:32:25.258Z,5.285
2023-04-18T02:33:24.501Z,5.317
2023-04-18T02:34:24.671Z,5.296
2023-04-18T02:35:24.830Z,5.298
2023-04-18T02:36:25.069Z,5.296
2023-04-18T02:37:24.184Z,5.293
2023-04-18T02:38:24.469Z,5.296
2023-04-18T02:39:24.727Z,5.325
2023-04-18T02:40:25.060Z,5.341
2023-04-18T02:41:24.196Z,5.341
2023-04-18T02:42:24.443Z,5.336
2023-04-18T02:43:24.612Z,5.312
2023-04-18T02:44:24.773Z,5.304
2023-04-18T02:45:25.069Z,5.368
2023-04-18T02:47:24.516Z,5.389
2023-04-18T02:48:24.542Z,5.373
2023-04-18T02:49:24.778Z,5.328
2023-04-18T02:50:24.995Z,5.349
2023-04-18T02:52:24.320Z,5.408
2023-04-18T02:53:24.557Z,5.386
2023-04-18T02:54:24.815Z,5.386
2023-04-18T02:55:25.059Z,5.389
2023-04-18T02:56:24.249Z,5.381
2023-04-18T02:57:24.550Z,5.384
2023-04-18T02:58:24.817Z,5.408
2023-04-18T02:59:25.023Z,5.378
2023-04-18T03:02:25.134Z,5.405
2023-04-18T03:03:25.045Z,5.408
2023-04-18T03:07:24.300Z,5.421
2023-04-18T03:08:24.453Z,5.453
2023-04-18T03:09:24.811Z,5.440
2023-04-18T03:10:24.112Z,5.424
2023-04-18T03:11:24.292Z,5.453
2023-04-18T03:12:24.547Z,5.424
2023-04-18T03:13:24.843Z,5.424
2023-04-18T03:14:25.073Z,5.386
2023-04-18T03:15:24.324Z,5.426
2023-04-18T03:16:24.808Z,5.435
2023-04-18T03:18:24.584Z,5.445
2023-04-18T03:19:24.781Z,5.426
2023-04-18T03:20:25.036Z,5.416
2023-04-18T03:21:24.201Z,5.432
2023-04-18T03:22:24.357Z,5.448
2023-04-18T03:23:24.572Z,5.451
2023-04-18T03:24:24.710Z,5.437
2023-04-18T03:25:25.018Z,5.459
2023-04-18T03:26:24.139Z,5.448
2023-04-18T03:27:24.336Z,5.416
2023-04-18T03:28:24.528Z,5.421
2023-04-18T03:29:24.736Z,5.467
2023-04-18T03:30:24.945Z,5.445
2023-04-18T03:31:25.175Z,5.459
2023-04-18T03:32:24.709Z,5.477
2023-04-18T03:34:24.543Z,5.472
2023-04-18T03:35:24.885Z,5.496
2023-04-18T03:36:24.127Z,5.483
2023-04-18T03:37:24.198Z,5.517
2023-04-18T03:38:24.449Z,5.499
2023-04-18T03:39:24.632Z,5.496
2023-04-18T03:40:24.827Z,5.523
2023-04-18T03:41:25.040Z,5.523
2023-04-18T03:42:24.151Z,5.512
2023-04-18T03:43:24.312Z,5.515
2023-04-18T03:44:24.513Z,5.571
2023-04-18T03:45:24.768Z,5.523
2023-04-18T03:46:25.042Z,5.544
2023-04-18T03:47:24.463Z,5.560
2023-04-18T03:48:24.824Z,5.549
2023-04-18T03:49:25.032Z,5.573
2023-04-18T03:50:24.185Z,5.563
2023-04-18T03:51:24.403Z,5.581
2023-04-18T03:52:24.636Z,5.632
2023-04-18T03:53:24.162Z,5.605
2023-04-18T03:54:24.269Z,5.648
2023-04-18T03:55:24.451Z,5.645
2023-04-18T03:56:24.711Z,5.632
2023-04-18T03:57:24.859Z,5.619
2023-04-18T03:58:24.967Z,5.669
2023-04-18T04:00:24.384Z,5.678
2023-04-18T04:01:24.707Z,5.656
2023-04-18T04:02:25.143Z,5.678
2023-04-18T04:03:25.432Z,5.669
2023-04-18T04:04:24.502Z,5.731
2023-04-18T04:06:24.580Z,5.726
2023-04-18T04:07:24.832Z,5.731
2023-04-18T04:09:24.970Z,5.792
2023-04-18T04:10:25.093Z,5.771
2023-04-18T04:11:24.223Z,5.779
2023-04-18T04:12:24.435Z,5.766
2023-04-18T04:13:24.643Z,5.776
2023-04-18T04:14:24.878Z,5.782
2023-04-18T04:15:25.091Z,5.806
2023-04-18T04:17:24.654Z,5.811
2023-04-18T04:18:24.093Z,5.830
2023-04-18T04:19:24.254Z,5.854
2023-04-18T04:20:24.484Z,5.827
2023-04-18T04:21:24.768Z,5.854
2023-04-18T04:22:25.027Z,5.838
2023-04-18T04:23:24.256Z,5.851
2023-04-18T04:24:24.339Z,5.827
2023-04-18T04:25:24.618Z,5.827
2023-04-18T04:26:24.872Z,5.854
2023-04-18T04:27:25.172Z,5.859
2023-04-18T04:28:24.380Z,5.891
2023-04-18T04:29:24.575Z,5.894
2023-04-18T04:30:24.698Z,5.883
2023-04-18T04:31:24.885Z,5.923
2023-04-18T04:32:24.386Z,5.953
2023-04-18T04:33:24.773Z,5.931
2023-04-18T04:34:24.975Z,5.942
2023-04-18T04:35:24.219Z,5.982
2023-04-18T04:36:24.312Z,5.942
2023-04-18T04:37:24.551Z,5.966
2023-04-18T04:38:24.833Z,5.969
2023-04-18T04:39:25.140Z,5.987
2023-04-18T04:40:24.397Z,5.977
2023-04-18T04:41:24.672Z,5.998
2023-04-18T04:42:24.859Z,6.025
2023-04-18T04:44:24.385Z,6.041
2023-04-18T04:45:24.928Z,6.046
2023-04-18T04:46:24.390Z,6.073
2023-04-18T04:47:24.713Z,6.062
2023-04-18T04:48:24.111Z,6.105
2023-04-18T04:49:24.281Z,6.113
2023-04-18T04:50:24.443Z,6.118
2023-04-18T04:51:24.674Z,6.115
2023-04-18T04:52:24.838Z,6.134
2023-04-18T04:53:25.028Z,6.150
2023-04-18T04:54:24.363Z,6.172
2023-04-18T04:55:24.545Z,6.153
2023-04-18T04:56:24.757Z,6.166
2023-04-18T04:57:24.925Z,6.169
2023-04-18T04:58:24.396Z,6.172
2023-04-18T04:59:24.643Z,6.180
2023-04-18T05:00:24.869Z,6.180
2023-04-18T05:01:25.121Z,6.180
2023-04-18T05:02:24.764Z,6.206
2023-04-18T05:03:24.974Z,6.225
2023-04-18T05:04:24.476Z,6.201
2023-04-18T05:05:24.664Z,6.228
2023-04-18T05:06:24.817Z,6.228
2023-04-18T05:07:25.029Z,6.254
2023-04-18T05:09:24.356Z,6.246
2023-04-18T05:10:24.532Z,6.284
2023-04-18T05:11:24.668Z,6.254
2023-04-18T05:12:24.824Z,6.257
2023-04-18T05:13:25.020Z,6.268
2023-04-18T05:14:24.183Z,6.278
2023-04-18T05:15:24.434Z,6.265
2023-04-18T05:16:24.667Z,6.294
2023-04-18T05:17:25.165Z,6.281
2023-04-18T05:18:24.570Z,6.289
2023-04-18T05:19:24.769Z,6.260
2023-04-18T05:20:24.939Z,6.297
2023-04-18T05:21:24.135Z,6.286
2023-04-18T05:22:24.302Z,6.292
2023-04-18T05:23:24.509Z,6.369
2023-04-18T05:24:24.700Z,6.366
2023-04-18T05:25:25.117Z,6.361
2023-04-18T05:27:24.548Z,6.393
2023-04-18T05:28:24.716Z,6.388
2023-04-18T05:29:24.935Z,6.423
2023-04-18T05:30:24.158Z,6.476
2023-04-18T05:31:24.511Z,6.468
2023-04-18T05:32:24.783Z,6.556
2023-04-18T05:33:24.321Z,6.497
2023-04-18T05:34:24.535Z,6.497
2023-04-18T05:35:24.810Z,6.489
2023-04-18T05:36:25.109Z,6.524
2023-04-18T05:37:24.248Z,6.516
2023-04-18T05:38:24.432Z,6.556
2023-04-18T05:39:25.104Z,6.569
2023-04-18T05:40:24.430Z,6.607
2023-04-18T05:41:24.555Z,6.612
2023-04-18T05:42:24.687Z,6.633
2023-04-18T05:43:24.891Z,6.764
2023-04-18T05:44:25.147Z,6.724
2023-04-18T05:45:24.291Z,6.788
2023-04-18T05:46:24.536Z,6.879
2023-04-18T05:47:25.110Z,6.927
2023-04-18T05:49:24.622Z,6.957
2023-04-18T05:50:24.796Z,7.015
2023-04-18T05:51:25.702Z,7.141
2023-04-18T05:52:24.928Z,7.218
2023-04-18T05:54:24.344Z,7.298
2023-04-18T05:55:24.536Z,7.387
2023-04-18T05:56:24.761Z,7.453
2023-04-18T05:57:24.962Z,7.408
2023-04-18T05:58:25.124Z,7.496
2023-04-18T05:59:24.358Z,7.504
2023-04-18T06:00:24.567Z,7.557
2023-04-18T06:01:24.777Z,7.472
2023-04-18T06:02:25.262Z,7.381
2023-04-18T06:04:24.976Z,7.333
2023-04-18T06:05:24.478Z,7.381
2023-04-18T06:06:24.581Z,7.419
2023-04-18T06:07:24.745Z,7.264
2023-04-18T06:08:24.954Z,7.312
2023-04-18T06:09:25.191Z,7.346
2023-04-18T06:10:24.385Z,7.373
2023-04-18T06:11:24.605Z,7.408
2023-04-18T06:12:24.768Z,7.395
2023-04-18T06:13:25.015Z,7.475
2023-04-18T06:14:24.212Z,7.571
2023-04-18T06:15:24.360Z,7.483
2023-04-18T06:16:24.780Z,7.512
2023-04-18T06:17:24.344Z,7.483
2023-04-18T06:18:24.752Z,7.587
2023-04-18T06:19:24.950Z,7.584
2023-04-18T06:20:25.160Z,7.723
2023-04-18T06:22:24.597Z,7.856
2023-04-18T06:23:24.809Z,7.865
2023-04-18T06:24:25.044Z,7.856
2023-04-18T06:25:24.268Z,7.910
2023-04-18T06:26:24.621Z,7.840
2023-04-18T06:27:31.759Z,7.926
2023-04-18T06:28:24.228Z,7.915
2023-04-18T06:29:24.448Z,7.998
2023-04-18T06:30:24.656Z,8.025
2023-04-18T06:31:24.856Z,8.059
2023-04-18T06:32:24.408Z,8.046
2023-04-18T06:33:24.990Z,8.169
2023-04-18T06:34:24.171Z,8.158
2023-04-18T06:35:26.426Z,8.113
2023-04-18T06:36:24.849Z,8.030
2023-04-18T06:37:24.950Z,8.150
2023-04-18T06:38:25.150Z,8.244
2023-04-18T06:39:24.255Z,8.326
2023-04-18T06:40:24.642Z,8.391
2023-04-18T06:41:24.837Z,8.369
2023-04-18T06:42:25.108Z,8.321
2023-04-18T06:44:24.161Z,8.449
2023-04-18T06:45:24.319Z,8.497
2023-04-18T06:46:24.995Z,8.572
2023-04-18T06:47:24.306Z,8.748
2023-04-18T06:48:24.752Z,8.919
2023-04-18T06:49:26.328Z,9.066
2023-04-18T06:50:24.873Z,9.114
2023-04-18T06:51:25.071Z,9.379
2023-04-18T06:52:24.246Z,9.445
2023-04-18T06:53:24.472Z,9.419
2023-04-18T06:54:24.932Z,9.360
2023-04-18T06:55:24.924Z,9.448
2023-04-18T06:56:25.114Z,9.429
2023-04-18T06:59:24.704Z,9.063
2023-04-18T07:00:24.944Z,9.021
2023-04-18T07:01:24.273Z,8.919
2023-04-18T07:02:24.709Z,9.138
2023-04-18T07:03:28.491Z,9.371
2023-04-18T07:04:24.605Z,9.106
2023-04-18T07:05:25.205Z,9.010
2023-04-18T07:06:24.452Z,8.941
2023-04-18T07:07:24.717Z,8.957
2023-04-18T07:08:24.176Z,8.877
2023-04-18T07:09:24.554Z,8.991
2023-04-18T07:10:24.911Z,9.055
2023-04-18T07:11:24.125Z,9.090
2023-04-18T07:12:24.303Z,9.055
2023-04-18T07:13:24.540Z,9.280
2023-04-18T07:14:24.866Z,9.098
2023-04-18T07:15:25.075Z,9.144
2023-04-18T07:16:24.386Z,9.050
2023-04-18T07:17:24.713Z,9.085
2023-04-18T07:18:34.674Z,9.355
2023-04-18T07:20:24.280Z,9.331
2023-04-18T07:21:24.455Z,9.432
2023-04-18T07:22:24.693Z,9.646
2023-04-18T07:23:24.924Z,9.926
2023-04-18T07:24:25.242Z,9.945
2023-04-18T07:25:24.629Z,9.950
2023-04-18T07:26:24.804Z,10.035
2023-04-18T07:27:25.102Z,10.068
2023-04-18T07:29:24.729Z,9.942
2023-04-18T07:30:25.682Z,10.108
2023-04-18T07:31:25.128Z,10.425
2023-04-18T07:32:25.958Z,10.391
2023-04-18T07:34:24.709Z,10.166
2023-04-18T07:35:25.036Z,10.441
2023-04-18T07:37:24.423Z,10.554
2023-04-18T07:38:24.645Z,10.732
2023-04-18T07:39:25.187Z,10.895
2023-04-18T07:40:24.428Z,10.933
2023-04-18T07:41:24.759Z,10.842
2023-04-18T07:42:24.612Z,10.628
2023-04-18T07:43:25.705Z,10.578
2023-04-18T07:44:24.675Z,10.452
2023-04-18T07:47:24.790Z,10.532
2023-04-18T07:48:25.281Z,10.580
2023-04-18T07:49:24.724Z,10.610
2023-04-18T07:50:25.213Z,10.546
2023-04-18T07:51:25.541Z,10.286
2023-04-18T07:52:25.004Z,10.492
2023-04-18T07:54:24.794Z,11.053
2023-04-18T07:55:24.361Z,11.328
2023-04-18T07:56:24.820Z,11.464
2023-04-18T07:57:25.038Z,11.755
2023-04-18T07:58:24.296Z,11.902
2023-04-18T07:59:24.544Z,11.921
2023-04-18T08:00:25.090Z,11.606
2023-04-18T08:01:24.890Z,11.451
2023-04-18T08:03:24.632Z,11.138
2023-04-18T08:05:25.308Z,11.328
2023-04-18T08:07:24.860Z,11.226
2023-04-18T08:09:25.547Z,11.469
2023-04-18T08:10:25.101Z,11.357
2023-04-18T08:12:24.921Z,11.731
2023-04-18T08:14:24.859Z,11.021
2023-04-18T08:15:25.130Z,11.104
2023-04-18T08:17:24.231Z,11.210
2023-04-18T08:18:24.648Z,11.186
2023-04-18T08:19:24.820Z,11.210
2023-04-18T08:20:25.032Z,11.050
2023-04-18T08:21:24.335Z,11.125
2023-04-18T08:22:24.604Z,11.526
2023-04-18T08:24:27.626Z,11.795
2023-04-18T08:26:30.555Z,11.915
2023-04-18T08:27:30.812Z,12.300
2023-04-18T08:29:30.708Z,12.861
2023-04-18T08:30:31.046Z,12.663
2023-04-18T08:31:30.443Z,12.004
2023-04-18T08:32:30.866Z,12.110
2023-04-18T08:34:30.651Z,12.057
2023-04-18T08:35:30.818Z,12.068
2023-04-18T08:36:31.129Z,12.196
2023-04-18T08:37:30.355Z,12.401
2023-04-18T08:38:30.540Z,12.575
2023-04-18T08:39:31.256Z,12.481
2023-04-18T08:41:30.659Z,12.695
2023-04-18T08:42:30.873Z,12.829
2023-04-18T08:43:31.090Z,12.749
2023-04-18T08:44:30.389Z,13.000
2023-04-18T08:45:30.782Z,12.874
2023-04-18T08:46:30.330Z,13.192
2023-04-18T08:47:30.659Z,13.368
2023-04-18T08:49:30.981Z,13.357
2023-04-18T08:50:30.159Z,13.475
2023-04-18T08:51:30.454Z,13.125
2023-04-18T08:52:31.306Z,13.451
2023-04-18T08:55:30.651Z,13.622
2023-04-18T08:56:30.975Z,13.627
2023-04-18T08:57:30.214Z,13.459
2023-04-18T08:58:30.823Z,13.061
2023-04-18T08:59:30.259Z,13.688
2023-04-18T09:00:31.131Z,13.504
2023-04-18T09:02:31.040Z,13.453
2023-04-18T09:03:30.350Z,13.486
2023-04-18T09:04:30.577Z,13.587
2023-04-18T09:05:31.016Z,13.488
2023-04-18T09:07:30.570Z,13.347
2023-04-18T09:08:30.840Z,13.219
2023-04-18T09:09:31.309Z,13.160
2023-04-18T09:10:30.449Z,13.042
2023-04-18T09:12:30.668Z,12.954
2023-04-18T09:13:30.943Z,12.786
2023-04-18T09:14:30.136Z,12.773
2023-04-18T09:15:30.450Z,12.543
2023-04-18T09:16:30.749Z,12.628
2023-04-18T09:17:30.172Z,12.759
2023-04-18T09:18:31.004Z,12.703
2023-04-18T09:19:30.262Z,12.647
2023-04-18T09:20:30.589Z,12.639
2023-04-18T09:21:30.894Z,12.642
2023-04-18T09:22:31.053Z,12.562
2023-04-18T09:23:30.221Z,12.492
2023-04-18T09:24:30.413Z,12.348
2023-04-18T09:25:30.629Z,12.126
2023-04-18T09:26:30.856Z,12.209
2023-04-18T09:27:30.140Z,12.241
2023-04-18T09:28:30.395Z,12.140
2023-04-18T09:29:31.179Z,12.332
2023-04-18T09:30:30.704Z,12.348
2023-04-18T09:31:31.245Z,12.292
2023-04-18T09:32:30.593Z,12.436
2023-04-18T09:33:31.067Z,12.129
2023-04-18T09:34:30.578Z,12.484
2023-04-18T09:35:31.066Z,12.612
2023-04-18T09:37:30.839Z,12.759
2023-04-18T09:38:31.104Z,12.805
2023-04-18T09:39:30.286Z,12.786
2023-04-18T09:40:30.435Z,12.719
2023-04-18T09:41:30.719Z,12.679
2023-04-18T09:43:30.680Z,12.791
2023-04-18T09:44:32.712Z,12.775
2023-04-18T09:46:30.379Z,13.106
2023-04-18T09:47:31.096Z,13.347
2023-04-18T09:48:30.557Z,13.416
2023-04-18T09:49:30.756Z,13.272
2023-04-18T09:50:30.960Z,12.775
2023-04-18T09:52:30.519Z,12.762
2023-04-18T09:53:30.684Z,12.818
2023-04-18T09:54:30.173Z,12.698
2023-04-18T09:55:30.728Z,12.746
2023-04-18T09:56:30.959Z,12.842
2023-04-18T09:57:30.150Z,12.775
2023-04-18T09:58:30.688Z,12.548
2023-04-18T09:59:30.962Z,12.738
2023-04-18T10:02:30.743Z,12.951
2023-04-18T10:03:30.384Z,12.893
2023-04-18T10:04:31.613Z,12.951
2023-04-18T10:05:30.262Z,13.152
2023-04-18T10:06:30.755Z,13.299
2023-04-18T10:07:30.998Z,13.186
2023-04-18T10:08:30.147Z,13.421
2023-04-18T10:09:30.742Z,13.219
2023-04-18T10:10:30.939Z,13.347
2023-04-18T10:11:30.175Z,13.349
2023-04-18T10:12:30.743Z,13.520
2023-04-18T10:13:31.130Z,13.555
2023-04-18T10:14:30.418Z,13.445
2023-04-18T10:15:30.724Z,13.349
2023-04-18T10:16:31.554Z,13.349
2023-04-18T10:17:30.336Z,13.026
2023-04-18T10:19:33.324Z,13.227
2023-04-18T10:20:33.508Z,13.293
2023-04-18T10:21:34.064Z,13.488
2023-04-18T10:22:33.283Z,13.331
2023-04-18T10:23:33.465Z,13.384
2023-04-18T10:24:33.901Z,13.496
2023-04-18T10:25:33.377Z,13.779
2023-04-18T10:26:33.657Z,13.312
2023-04-18T10:27:33.931Z,13.352
2023-04-18T10:28:33.389Z,13.496
2023-04-18T10:29:33.583Z,13.619
2023-04-18T10:30:33.787Z,13.705
2023-04-18T10:31:33.928Z,13.528
2023-04-18T10:32:33.389Z,13.440
2023-04-18T10:33:40.883Z,13.408
2023-04-18T10:35:37.994Z,13.539
2023-04-18T10:36:38.193Z,13.825
2023-04-18T10:37:37.351Z,14.353
2023-04-18T10:38:37.617Z,14.279
2023-04-18T10:39:37.887Z,14.479
2023-04-18T10:40:37.219Z,14.738
2023-04-18T10:41:37.493Z,14.612
2023-04-18T10:42:37.723Z,14.882
2023-04-18T10:43:37.958Z,14.858
2023-04-18T10:44:37.210Z,15.002
2023-04-18T10:45:37.458Z,15.029
2023-04-18T10:46:42.860Z,15.189
2023-04-18T10:47:37.371Z,14.482
2023-04-18T10:48:38.505Z,14.281
2023-04-18T10:49:37.937Z,14.233
2023-04-18T10:50:37.216Z,14.308
2023-04-18T10:51:37.479Z,13.854
2023-04-18T10:52:37.699Z,13.640
2023-04-18T10:53:37.929Z,13.360
2023-04-18T10:54:37.258Z,13.429
2023-04-18T10:55:37.763Z,13.106
2023-04-18T10:56:38.064Z,13.275
2023-04-18T10:57:37.226Z,13.002
2023-04-18T10:58:37.496Z,13.227
2023-04-18T10:59:37.990Z,13.667
2023-04-18T11:00:37.182Z,13.536
2023-04-18T11:01:37.851Z,13.662
2023-04-18T11:03:37.696Z,13.507
2023-04-18T11:05:37.541Z,13.411
2023-04-18T11:06:38.207Z,13.560
2023-04-18T11:07:37.441Z,13.547
2023-04-18T11:08:37.608Z,13.667
2023-04-18T11:09:37.795Z,13.614
2023-04-18T11:10:38.365Z,13.678
2023-04-18T11:11:37.647Z,14.057
2023-04-18T11:12:37.909Z,14.062
2023-04-18T11:14:37.434Z,13.990
2023-04-18T11:15:37.661Z,14.057
2023-04-18T11:16:37.979Z,14.086
2023-04-18T11:17:37.427Z,14.674
2023-04-18T11:18:37.997Z,14.530
2023-04-18T11:19:37.228Z,14.992
2023-04-18T11:20:37.426Z,15.154
2023-04-18T11:21:37.626Z,15.227
2023-04-18T11:22:38.140Z,14.941
2023-04-18T11:23:37.454Z,14.255
2023-04-18T11:24:37.647Z,14.308
2023-04-18T11:25:37.828Z,14.137
2023-04-18T11:26:37.273Z,13.918
2023-04-18T11:27:37.965Z,13.899
2023-04-18T11:28:37.243Z,13.972
2023-04-18T11:29:37.505Z,13.544
2023-04-18T11:30:37.800Z,13.219
2023-04-18T11:31:38.127Z,13.251
2023-04-18T11:32:37.961Z,13.475
2023-04-18T11:33:37.522Z,13.269
2023-04-18T11:34:37.943Z,13.050
2023-04-18T11:36:37.427Z,13.072
2023-04-18T11:37:37.817Z,13.125
2023-04-18T11:38:40.085Z,13.178
2023-04-18T11:39:37.364Z,13.090
2023-04-18T11:40:37.684Z,13.002
2023-04-18T11:41:37.985Z,13.219
2023-04-18T11:42:37.270Z,13.355
2023-04-18T11:43:37.662Z,13.453
2023-04-18T11:44:37.954Z,13.502
2023-04-18T11:46:37.702Z,13.790
2023-04-18T11:47:38.002Z,13.702
2023-04-18T11:48:37.517Z,13.662
2023-04-18T11:49:37.796Z,13.688
2023-04-18T11:51:37.528Z,14.041
2023-04-18T11:52:37.913Z,13.822
2023-04-18T11:53:37.100Z,14.097
2023-04-18T11:54:37.313Z,14.263
2023-04-18T11:55:37.506Z,14.532
2023-04-18T11:56:37.734Z,14.679
2023-04-18T11:57:37.914Z,14.802
2023-04-18T11:58:37.215Z,14.498
2023-04-18T11:59:37.517Z,14.303
2023-04-18T12:00:37.777Z,14.775
2023-04-18T12:01:38.078Z,14.714
2023-04-18T12:02:37.759Z,14.855
2023-04-18T12:04:38.266Z,14.693
2023-04-18T12:05:38.873Z,14.682
2023-04-18T12:06:37.232Z,14.933
2023-04-18T12:07:37.402Z,14.620
2023-04-18T12:08:37.582Z,14.351
2023-04-18T12:09:37.726Z,14.618
2023-04-18T12:10:37.927Z,14.425
2023-04-18T12:11:38.139Z,14.463
2023-04-18T12:12:37.372Z,14.372
2023-04-18T12:13:37.715Z,14.759
2023-04-18T12:14:38.016Z,15.347
2023-04-18T12:15:37.209Z,15.819
2023-04-18T12:16:37.878Z,15.972
2023-04-18T12:17:38.106Z,15.598
2023-04-18T12:19:38.043Z,15.803
2023-04-18T12:21:37.510Z,16.434
2023-04-18T12:22:37.794Z,16.767
2023-04-18T12:23:38.099Z,17.149
2023-04-18T12:24:37.276Z,17.123
2023-04-18T12:25:37.692Z,15.446
2023-04-18T12:26:37.999Z,15.381
2023-04-18T12:27:37.173Z,15.486
2023-04-18T12:28:37.407Z,15.531
2023-04-18T12:29:37.751Z,15.638
2023-04-18T12:30:38.063Z,15.697
2023-04-18T12:31:37.412Z,15.558
2023-04-18T12:32:37.478Z,15.520
2023-04-18T12:33:37.833Z,15.539
2023-04-18T12:34:37.177Z,14.711
2023-04-18T12:35:37.323Z,14.783
2023-04-18T12:36:37.519Z,14.626
2023-04-18T12:37:38.948Z,14.952
2023-04-18T12:39:37.364Z,15.275
2023-04-18T12:40:37.587Z,15.251
2023-04-18T12:41:37.882Z,15.526
2023-04-18T12:42:37.263Z,15.165
2023-04-18T12:43:38.111Z,15.146
2023-04-18T12:45:37.583Z,15.264
2023-04-18T12:46:37.213Z,15.205
2023-04-18T12:47:37.832Z,15.272
2023-04-18T12:49:37.709Z,14.976
2023-04-18T12:50:38.034Z,15.045
2023-04-18T12:51:37.261Z,14.778
2023-04-18T12:52:37.549Z,14.917
2023-04-18T12:53:37.885Z,15.010
2023-04-18T12:54:38.129Z,14.861
2023-04-18T12:55:37.332Z,14.981
2023-04-18T12:56:37.560Z,14.957
2023-04-18T12:59:37.944Z,14.554
2023-04-18T13:00:37.268Z,14.327
2023-04-18T13:01:37.968Z,14.452
2023-04-18T13:05:41.148Z,14.153
2023-04-18T13:06:40.449Z,14.121
2023-04-18T13:07:40.672Z,14.084
2023-04-18T13:09:41.643Z,13.980
2023-04-18T13:10:41.892Z,13.918
2023-04-18T13:11:41.475Z,13.753
2023-04-18T13:12:41.719Z,13.688
2023-04-18T13:13:41.960Z,13.624
2023-04-18T13:14:41.336Z,13.742
2023-04-18T13:15:41.659Z,13.691
2023-04-18T13:16:43.749Z,13.670
2023-04-18T13:17:41.639Z,13.464
2023-04-18T13:18:42.130Z,13.680
2023-04-18T13:19:41.320Z,13.606
2023-04-18T13:20:41.539Z,13.397
2023-04-18T13:21:41.856Z,13.352
2023-04-18T13:22:42.074Z,13.189
2023-04-18T13:23:41.302Z,13.219
2023-04-18T13:24:41.495Z,13.307
2023-04-18T13:25:41.821Z,13.048
2023-04-18T13:26:42.097Z,12.893
2023-04-18T13:27:41.862Z,12.855
2023-04-18T13:28:42.195Z,12.850
2023-04-18T13:29:41.369Z,12.874
2023-04-18T13:30:41.863Z,12.855
2023-04-18T13:31:41.477Z,12.839
2023-04-18T13:32:42.767Z,12.807
2023-04-18T13:34:41.283Z,12.674
2023-04-18T13:35:41.527Z,12.650
2023-04-18T13:36:42.290Z,12.527
2023-04-18T13:37:41.732Z,12.572
2023-04-18T13:38:42.019Z,12.538
2023-04-18T13:39:41.295Z,12.548
2023-04-18T13:40:41.608Z,12.420
2023-04-18T13:42:43.280Z,12.321
2023-04-18T13:45:42.458Z,12.217
2023-04-18T13:46:43.012Z,12.423
2023-04-18T13:47:42.274Z,12.380
2023-04-18T13:48:42.890Z,12.364
2023-04-18T13:50:42.730Z,12.201
2023-04-18T13:51:43.003Z,12.321
2023-04-18T13:52:42.241Z,12.348
2023-04-18T13:53:42.859Z,12.257
2023-04-18T13:55:42.902Z,12.236
2023-04-18T13:56:42.237Z,12.287
2023-04-18T13:57:42.450Z,12.201
2023-04-18T13:58:42.935Z,12.279
2023-04-18T13:59:42.171Z,12.233
2023-04-18T14:00:42.360Z,12.180
2023-04-18T14:01:42.814Z,12.441
2023-04-18T14:02:43.011Z,12.423
2023-04-18T14:03:43.760Z,12.436
2023-04-18T14:04:43.171Z,12.498
2023-04-18T14:05:42.383Z,12.335
2023-04-18T14:06:42.595Z,12.284
2023-04-18T14:07:42.924Z,12.369
2023-04-18T14:08:42.212Z,12.524
2023-04-18T14:09:42.396Z,12.658
2023-04-18T14:10:42.710Z,12.543
2023-04-18T14:11:42.883Z,12.535